AFR081 KSFO-LFPG
Flight info
| Callsign | AFR081 |
|---|---|
| Flight time | N/A |
| Altitude | 37000 |
| Route | SNTNA2 TIPRE DCT MVA DCT KD57Q DCT KD63U DCT SNY DCT FOD DCT DLL/N0488F390 DCT TVC DCT NOTAP DCT OXASA DCT ANCER N553B UMESI/M085F390 DCT 51N050W 52N040W 5230N03000W 52N020W DCT ADARA/N0489F390 DCT LEKVA/M085F410 DCT LULOX/N0490F410 DCT NAKID DCT ANNET UM25 INGOR/N0494F280 UM25 LUKIP |
| Aircraft | A359/H-SDE2E3GHIJ3J4J5LM1ORWXY/LB1D1 |
Departure
| Time | 2026-05-05 07:49 |
|---|---|
| Airport | San Francisco International Airport (KSFO) |
Arrival
| Time | N/A |
|---|---|
| Airport | Charles de Gaulle International Airport (LFPG) |
| Time | Latitude | Longitude | Altitude | Speed | Heading |
|---|---|---|---|---|---|
| 2026-05-05 07:18 | 37.61286 | -122.38841 | 27 ft | 0 kts | 296° |
| 2026-05-05 07:35 | 37.61277 | -122.38819 | 23 ft | 4 kts | 295° |
| 2026-05-05 07:36 | 37.61268 | -122.38788 | 28 ft | 4 kts | 268° |
| 2026-05-05 07:36 | 37.61272 | -122.38772 | 29 ft | 1 kts | 205° |
| 2026-05-05 07:39 | 37.61256 | -122.38780 | 30 ft | 7 kts | 202° |
| 2026-05-05 07:39 | 37.61183 | -122.38826 | 30 ft | 14 kts | 208° |
| 2026-05-05 07:39 | 37.61105 | -122.38877 | 27 ft | 12 kts | 207° |
| 2026-05-05 07:40 | 37.61037 | -122.38874 | 27 ft | 10 kts | 147° |
| 2026-05-05 07:40 | 37.60984 | -122.38795 | 24 ft | 13 kts | 121° |
| 2026-05-05 07:40 | 37.60938 | -122.38686 | 27 ft | 15 kts | 117° |
| 2026-05-05 07:40 | 37.60888 | -122.38564 | 28 ft | 16 kts | 116° |
| 2026-05-05 07:41 | 37.60870 | -122.38444 | 30 ft | 11 kts | 101° |
| 2026-05-05 07:41 | 37.60890 | -122.38392 | 27 ft | 9 kts | 45° |
| 2026-05-05 07:41 | 37.60969 | -122.38332 | 31 ft | 18 kts | 26° |
| 2026-05-05 07:41 | 37.61058 | -122.38255 | 26 ft | 10 kts | 65° |
| 2026-05-05 07:42 | 37.61053 | -122.38197 | 26 ft | 6 kts | 110° |
| 2026-05-05 07:42 | 37.61039 | -122.38148 | 26 ft | 8 kts | 110° |
| 2026-05-05 07:42 | 37.61035 | -122.38053 | 27 ft | 15 kts | 77° |
| 2026-05-05 07:42 | 37.61095 | -122.37934 | 28 ft | 19 kts | 52° |
| 2026-05-05 07:43 | 37.61192 | -122.37779 | 28 ft | 23 kts | 50° |
| 2026-05-05 07:43 | 37.61230 | -122.37609 | 24 ft | 19 kts | 84° |
| 2026-05-05 07:43 | 37.61283 | -122.37484 | 27 ft | 14 kts | 39° |
| 2026-05-05 07:43 | 37.61355 | -122.37434 | 28 ft | 10 kts | 27° |
| 2026-05-05 07:44 | 37.61415 | -122.37395 | 28 ft | 9 kts | 28° |
| 2026-05-05 07:44 | 37.61481 | -122.37349 | 28 ft | 12 kts | 32° |
| 2026-05-05 07:44 | 37.61542 | -122.37268 | 29 ft | 14 kts | 61° |
| 2026-05-05 07:44 | 37.61555 | -122.37133 | 28 ft | 18 kts | 102° |
| 2026-05-05 07:45 | 37.61498 | -122.36986 | 29 ft | 20 kts | 122° |
| 2026-05-05 07:45 | 37.61408 | -122.36838 | 29 ft | 23 kts | 129° |
| 2026-05-05 07:45 | 37.61316 | -122.36660 | 27 ft | 25 kts | 118° |
| 2026-05-05 07:45 | 37.61228 | -122.36449 | 26 ft | 28 kts | 118° |
| 2026-05-05 07:46 | 37.61136 | -122.36231 | 24 ft | 29 kts | 118° |
| 2026-05-05 07:46 | 37.61096 | -122.36135 | 28 ft | 0 kts | 118° |
| 2026-05-05 07:46 | 37.61095 | -122.36132 | 28 ft | 3 kts | 118° |
| 2026-05-05 07:46 | 37.61067 | -122.36065 | 29 ft | 14 kts | 118° |
| 2026-05-05 07:47 | 37.61053 | -122.35967 | 27 ft | 7 kts | 68° |
| 2026-05-05 07:47 | 37.61091 | -122.35911 | 27 ft | 9 kts | 38° |
| 2026-05-05 07:47 | 37.61151 | -122.35877 | 28 ft | 9 kts | 8° |
| 2026-05-05 07:47 | 37.61196 | -122.35912 | 29 ft | 8 kts | 301° |
| 2026-05-05 07:48 | 37.61207 | -122.35938 | 29 ft | 0 kts | 298° |
| 2026-05-05 07:48 | 37.61287 | -122.36127 | 23 ft | 61 kts | 298° |
| 2026-05-05 07:48 | 37.61616 | -122.36899 | 28 ft | 136 kts | 298° |
| 2026-05-05 07:48 | 37.62139 | -122.38145 | 421 ft | 166 kts | 297° |
| 2026-05-05 07:49 | 37.62658 | -122.39421 | 1448 ft | 162 kts | 298° |
| 2026-05-05 07:49 | 37.63191 | -122.40674 | 2408 ft | 165 kts | 299° |
| 2026-05-05 07:49 | 37.63762 | -122.41994 | 2867 ft | 177 kts | 298° |
| 2026-05-05 07:49 | 37.64381 | -122.43422 | 3116 ft | 195 kts | 298° |
| 2026-05-05 07:50 | 37.65066 | -122.45006 | 3293 ft | 216 kts | 298° |
| 2026-05-05 07:50 | 37.65825 | -122.46756 | 3498 ft | 238 kts | 298° |
| 2026-05-05 07:50 | 37.66642 | -122.48639 | 3908 ft | 249 kts | 297° |
| 2026-05-05 07:50 | 37.67519 | -122.50560 | 4451 ft | 256 kts | 303° |
| 2026-05-05 07:51 | 37.68835 | -122.52067 | 4989 ft | 266 kts | 333° |
| 2026-05-05 07:51 | 37.70652 | -122.52562 | 5613 ft | 270 kts | 356° |
| 2026-05-05 07:51 | 37.72527 | -122.52623 | 6399 ft | 268 kts | 358° |
| 2026-05-05 07:51 | 37.74382 | -122.52659 | 7169 ft | 266 kts | 359° |
| 2026-05-05 07:52 | 37.76239 | -122.52709 | 7849 ft | 269 kts | 358° |
| 2026-05-05 07:52 | 37.78122 | -122.52677 | 8504 ft | 273 kts | 6° |
| 2026-05-05 07:52 | 37.79931 | -122.51945 | 9192 ft | 277 kts | 30° |
| 2026-05-05 07:52 | 37.81309 | -122.50290 | 9909 ft | 279 kts | 55° |
| 2026-05-05 07:53 | 37.82218 | -122.48087 | 10465 ft | 289 kts | 63° |
| 2026-05-05 07:53 | 37.83052 | -122.45687 | 10778 ft | 307 kts | 64° |
| 2026-05-05 07:53 | 37.83887 | -122.43125 | 11053 ft | 324 kts | 67° |
| 2026-05-05 07:53 | 37.84648 | -122.40372 | 11339 ft | 340 kts | 69° |
| 2026-05-05 07:54 | 37.85421 | -122.37468 | 11612 ft | 354 kts | 68° |
| 2026-05-05 07:54 | 37.86220 | -122.34470 | 12026 ft | 363 kts | 68° |
| 2026-05-05 07:54 | 37.87032 | -122.31428 | 12601 ft | 366 kts | 68° |
| 2026-05-05 07:54 | 37.87841 | -122.28405 | 13230 ft | 367 kts | 68° |
| 2026-05-05 07:55 | 37.88628 | -122.25318 | 13864 ft | 370 kts | 72° |
| 2026-05-05 07:55 | 37.88847 | -122.22030 | 14349 ft | 383 kts | 91° |
| 2026-05-05 07:55 | 37.88295 | -122.18677 | 14793 ft | 394 kts | 102° |
| 2026-05-05 07:55 | 37.87505 | -122.15349 | 15392 ft | 395 kts | 103° |
| 2026-05-05 07:56 | 37.86707 | -122.12110 | 16019 ft | 394 kts | 103° |
| 2026-05-05 07:56 | 37.85878 | -122.08796 | 16647 ft | 395 kts | 103° |
| 2026-05-05 07:56 | 37.85048 | -122.05467 | 17252 ft | 394 kts | 101° |
| 2026-05-05 07:56 | 37.84526 | -122.02080 | 17827 ft | 390 kts | 90° |
| 2026-05-05 07:57 | 37.84599 | -121.98681 | 18403 ft | 383 kts | 77° |
| 2026-05-05 07:57 | 37.85350 | -121.95495 | 18846 ft | 381 kts | 65° |
| 2026-05-05 07:57 | 37.86454 | -121.92463 | 19248 ft | 384 kts | 62° |
| 2026-05-05 07:57 | 37.87644 | -121.89387 | 19670 ft | 388 kts | 62° |
| 2026-05-05 07:58 | 37.88843 | -121.86305 | 20140 ft | 390 kts | 62° |
| 2026-05-05 07:58 | 37.90038 | -121.83234 | 20607 ft | 394 kts | 63° |
| 2026-05-05 07:58 | 37.91263 | -121.80083 | 21074 ft | 397 kts | 63° |
| 2026-05-05 07:58 | 37.92472 | -121.76968 | 21527 ft | 401 kts | 63° |
| 2026-05-05 07:59 | 37.93707 | -121.73783 | 21974 ft | 404 kts | 63° |
| 2026-05-05 07:59 | 37.94952 | -121.70566 | 22480 ft | 406 kts | 63° |
| 2026-05-05 07:59 | 37.96206 | -121.67325 | 22975 ft | 409 kts | 63° |
| 2026-05-05 07:59 | 37.97452 | -121.64098 | 23436 ft | 412 kts | 63° |
| 2026-05-05 08:00 | 37.98722 | -121.60810 | 23862 ft | 415 kts | 63° |
| 2026-05-05 08:00 | 37.99977 | -121.57553 | 24272 ft | 417 kts | 63° |
| 2026-05-05 08:00 | 38.01261 | -121.54220 | 24684 ft | 419 kts | 63° |
| 2026-05-05 08:00 | 38.02531 | -121.50920 | 25097 ft | 421 kts | 63° |
| 2026-05-05 08:01 | 38.03822 | -121.47560 | 25546 ft | 422 kts | 63° |
| 2026-05-05 08:01 | 38.05113 | -121.44197 | 25944 ft | 424 kts | 63° |
| 2026-05-05 08:01 | 38.06393 | -121.40858 | 26329 ft | 427 kts | 63° |
| 2026-05-05 08:01 | 38.07697 | -121.37456 | 26713 ft | 429 kts | 63° |
| 2026-05-05 08:02 | 38.09003 | -121.34041 | 27110 ft | 431 kts | 63° |
| 2026-05-05 08:02 | 38.10319 | -121.30600 | 27491 ft | 433 kts | 63° |
| 2026-05-05 08:02 | 38.11628 | -121.27169 | 27866 ft | 435 kts | 63° |
| 2026-05-05 08:02 | 38.12953 | -121.23696 | 28242 ft | 438 kts | 63° |
| 2026-05-05 08:03 | 38.14271 | -121.20234 | 28584 ft | 440 kts | 63° |
| 2026-05-05 08:03 | 38.15607 | -121.16723 | 28923 ft | 443 kts | 63° |
| 2026-05-05 08:03 | 38.16953 | -121.13183 | 29273 ft | 445 kts | 63° |
| 2026-05-05 08:03 | 38.18306 | -121.09616 | 29590 ft | 447 kts | 63° |
| 2026-05-05 08:04 | 38.19614 | -121.06069 | 29886 ft | 449 kts | 65° |
| 2026-05-05 08:04 | 38.20651 | -121.02296 | 30190 ft | 453 kts | 73° |
| 2026-05-05 08:04 | 38.21362 | -120.98376 | 30598 ft | 452 kts | 76° |
| 2026-05-05 08:04 | 38.21925 | -120.94483 | 31064 ft | 450 kts | 77° |
| 2026-05-05 08:05 | 38.22426 | -120.90562 | 31561 ft | 446 kts | 78° |
| 2026-05-05 08:05 | 38.22895 | -120.86714 | 31994 ft | 443 kts | 78° |
| 2026-05-05 08:05 | 38.23368 | -120.82842 | 32363 ft | 441 kts | 78° |
| 2026-05-05 08:05 | 38.23848 | -120.78986 | 32732 ft | 439 kts | 78° |
| 2026-05-05 08:06 | 38.24171 | -120.76441 | 32985 ft | 438 kts | 78° |
| 2026-05-05 08:06 | 38.24821 | -120.71383 | 33492 ft | 435 kts | 77° |
| 2026-05-05 08:06 | 38.25153 | -120.68815 | 33727 ft | 434 kts | 77° |
| 2026-05-05 08:06 | 38.25639 | -120.65079 | 34068 ft | 432 kts | 77° |
| 2026-05-05 08:07 | 38.26292 | -120.60059 | 34364 ft | 432 kts | 77° |
| 2026-05-05 08:07 | 38.26618 | -120.57549 | 34440 ft | 434 kts | 77° |
| 2026-05-05 08:07 | 38.27110 | -120.53747 | 34549 ft | 435 kts | 78° |
| 2026-05-05 08:07 | 38.27603 | -120.49919 | 34723 ft | 436 kts | 78° |
| 2026-05-05 08:08 | 38.28090 | -120.46123 | 34862 ft | 437 kts | 78° |
| 2026-05-05 08:08 | 38.28581 | -120.42279 | 34991 ft | 439 kts | 78° |
| 2026-05-05 08:08 | 38.29064 | -120.38486 | 35145 ft | 439 kts | 78° |
| 2026-05-05 08:08 | 38.29555 | -120.34616 | 35300 ft | 441 kts | 78° |
| 2026-05-05 08:09 | 38.30039 | -120.30790 | 35450 ft | 441 kts | 78° |
| 2026-05-05 08:09 | 38.30529 | -120.26910 | 35579 ft | 442 kts | 78° |
| 2026-05-05 08:09 | 38.31018 | -120.23028 | 35710 ft | 444 kts | 78° |
| 2026-05-05 08:09 | 38.31509 | -120.19124 | 35837 ft | 445 kts | 78° |
| 2026-05-05 08:10 | 38.31991 | -120.15284 | 35950 ft | 446 kts | 78° |
| 2026-05-05 08:10 | 38.32482 | -120.11365 | 36085 ft | 446 kts | 78° |
| 2026-05-05 08:10 | 38.32972 | -120.07435 | 36196 ft | 448 kts | 78° |
| 2026-05-05 08:10 | 38.33453 | -120.03566 | 36298 ft | 449 kts | 78° |
| 2026-05-05 08:11 | 38.34427 | -119.95695 | 36373 ft | 455 kts | 79° |
| 2026-05-05 08:11 | 38.34923 | -119.91671 | 36500 ft | 455 kts | 79° |
| 2026-05-05 08:11 | 38.35408 | -119.87724 | 36666 ft | 455 kts | 79° |
| 2026-05-05 08:12 | 38.36382 | -119.79767 | 36817 ft | 457 kts | 79° |
| 2026-05-05 08:12 | 38.37364 | -119.71700 | 36913 ft | 462 kts | 79° |
| 2026-05-05 08:13 | 38.38347 | -119.63582 | 36956 ft | 466 kts | 79° |
| 2026-05-05 08:13 | 38.39327 | -119.55423 | 36942 ft | 467 kts | 79° |
| 2026-05-05 08:14 | 38.40308 | -119.47213 | 36929 ft | 467 kts | 79° |
| 2026-05-05 08:14 | 38.41283 | -119.39018 | 36929 ft | 468 kts | 79° |
| 2026-05-05 08:15 | 38.42252 | -119.30802 | 36920 ft | 468 kts | 79° |
| 2026-05-05 08:15 | 38.43208 | -119.22652 | 36906 ft | 468 kts | 80° |
| 2026-05-05 08:16 | 38.44173 | -119.14371 | 36905 ft | 471 kts | 80° |
| 2026-05-05 08:16 | 38.45128 | -119.06121 | 36901 ft | 471 kts | 80° |
| 2026-05-05 08:17 | 38.46080 | -118.97847 | 36906 ft | 471 kts | 80° |
| 2026-05-05 08:17 | 38.47025 | -118.89595 | 36916 ft | 473 kts | 80° |
| 2026-05-05 08:18 | 38.47968 | -118.81302 | 36926 ft | 474 kts | 81° |
| 2026-05-05 08:18 | 38.48910 | -118.72948 | 36943 ft | 474 kts | 81° |
| 2026-05-05 08:19 | 38.49844 | -118.64622 | 36941 ft | 476 kts | 81° |
| 2026-05-05 08:19 | 38.50780 | -118.56224 | 36942 ft | 480 kts | 81° |
| 2026-05-05 08:20 | 38.51712 | -118.47812 | 36934 ft | 480 kts | 81° |
| 2026-05-05 08:20 | 38.52642 | -118.39349 | 36918 ft | 480 kts | 81° |
| 2026-05-05 08:21 | 38.53564 | -118.30905 | 36903 ft | 481 kts | 81° |
| 2026-05-05 08:21 | 38.54479 | -118.22468 | 36885 ft | 483 kts | 82° |
| 2026-05-05 08:22 | 38.55394 | -118.13979 | 36881 ft | 483 kts | 82° |
| 2026-05-05 08:22 | 38.56307 | -118.05441 | 36877 ft | 483 kts | 82° |
| 2026-05-05 08:23 | 38.57331 | -117.96977 | 36884 ft | 484 kts | 79° |
| 2026-05-05 08:23 | 38.58673 | -117.88536 | 36883 ft | 485 kts | 78° |
| 2026-05-05 08:24 | 38.60025 | -117.80106 | 36881 ft | 485 kts | 78° |
| 2026-05-05 08:24 | 38.61317 | -117.71670 | 36881 ft | 485 kts | 79° |
| 2026-05-05 08:25 | 38.62588 | -117.63160 | 36881 ft | 485 kts | 79° |
| 2026-05-05 08:25 | 38.63836 | -117.54728 | 36872 ft | 485 kts | 79° |
| 2026-05-05 08:26 | 38.65084 | -117.46271 | 36857 ft | 485 kts | 79° |
| 2026-05-05 08:26 | 38.66330 | -117.37781 | 36867 ft | 488 kts | 79° |
| 2026-05-05 08:27 | 38.67579 | -117.29235 | 36860 ft | 489 kts | 79° |
| 2026-05-05 08:27 | 38.68821 | -117.20692 | 36859 ft | 489 kts | 79° |
| 2026-05-05 08:28 | 38.70062 | -117.12110 | 36859 ft | 490 kts | 80° |
| 2026-05-05 08:28 | 38.71295 | -117.03533 | 36857 ft | 492 kts | 80° |
| 2026-05-05 08:29 | 38.72528 | -116.94915 | 36853 ft | 494 kts | 80° |
| 2026-05-05 08:30 | 38.74366 | -116.81982 | 36851 ft | 495 kts | 81° |
| 2026-05-05 08:30 | 38.75594 | -116.73269 | 36848 ft | 497 kts | 81° |
| 2026-05-05 08:31 | 38.76814 | -116.64571 | 36851 ft | 498 kts | 81° |
| 2026-05-05 08:31 | 38.78037 | -116.55804 | 36828 ft | 497 kts | 81° |
| 2026-05-05 08:32 | 38.79246 | -116.47088 | 36844 ft | 499 kts | 81° |
| 2026-05-05 08:32 | 38.80455 | -116.38325 | 36843 ft | 500 kts | 81° |
| 2026-05-05 08:33 | 38.81662 | -116.29521 | 36837 ft | 500 kts | 81° |
| 2026-05-05 08:33 | 38.82856 | -116.20765 | 36837 ft | 501 kts | 82° |
| 2026-05-05 08:34 | 38.84049 | -116.11958 | 36833 ft | 503 kts | 82° |
| 2026-05-05 08:34 | 38.85239 | -116.03129 | 36832 ft | 503 kts | 82° |
| 2026-05-05 08:35 | 38.86420 | -115.94310 | 36808 ft | 503 kts | 82° |
| 2026-05-05 08:35 | 38.87596 | -115.85472 | 36821 ft | 504 kts | 82° |
| 2026-05-05 08:36 | 38.88777 | -115.76549 | 36811 ft | 505 kts | 82° |
| 2026-05-05 08:36 | 38.89943 | -115.67684 | 36817 ft | 505 kts | 82° |
| 2026-05-05 08:37 | 38.91103 | -115.58809 | 36815 ft | 506 kts | 82° |
| 2026-05-05 08:37 | 38.92263 | -115.49876 | 36810 ft | 508 kts | 82° |
| 2026-05-05 08:38 | 38.93417 | -115.40940 | 36812 ft | 508 kts | 82° |
| 2026-05-05 08:38 | 38.94564 | -115.31997 | 36798 ft | 508 kts | 83° |
| 2026-05-05 08:39 | 38.95703 | -115.23060 | 36802 ft | 509 kts | 83° |
| 2026-05-05 08:39 | 38.96848 | -115.14027 | 36802 ft | 510 kts | 83° |
| 2026-05-05 08:40 | 38.97980 | -115.05036 | 36798 ft | 510 kts | 83° |
| 2026-05-05 08:40 | 38.99107 | -114.96069 | 36820 ft | 510 kts | 83° |
| 2026-05-05 08:41 | 39.00252 | -114.87076 | 36778 ft | 512 kts | 83° |
| 2026-05-05 08:41 | 39.01449 | -114.78076 | 36780 ft | 512 kts | 82° |
| 2026-05-05 08:42 | 39.02703 | -114.69053 | 36865 ft | 511 kts | 82° |
| 2026-05-05 08:42 | 39.04019 | -114.60110 | 36843 ft | 512 kts | 81° |
| 2026-05-05 08:43 | 39.05434 | -114.51090 | 36784 ft | 513 kts | 81° |
| 2026-05-05 08:43 | 39.06933 | -114.42135 | 36817 ft | 513 kts | 80° |
| 2026-05-05 08:44 | 39.08506 | -114.33207 | 36819 ft | 513 kts | 79° |
| 2026-05-05 08:44 | 39.10135 | -114.24261 | 36717 ft | 516 kts | 79° |
| 2026-05-05 08:45 | 39.11813 | -114.15287 | 36753 ft | 516 kts | 78° |
| 2026-05-05 08:45 | 39.13526 | -114.06308 | 36839 ft | 514 kts | 78° |
| 2026-05-05 08:46 | 39.15261 | -113.97377 | 36737 ft | 517 kts | 78° |
| 2026-05-05 08:46 | 39.17047 | -113.88376 | 36624 ft | 520 kts | 78° |
| 2026-05-05 08:47 | 39.18885 | -113.79380 | 36795 ft | 516 kts | 77° |
| 2026-05-05 08:47 | 39.20752 | -113.70524 | 36811 ft | 517 kts | 77° |
| 2026-05-05 08:47 | 39.21718 | -113.66033 | 36675 ft | 520 kts | 77° |
| 2026-05-05 08:48 | 39.22706 | -113.61505 | 36539 ft | 524 kts | 76° |
| 2026-05-05 08:48 | 39.24705 | -113.52492 | 36622 ft | 522 kts | 76° |
| 2026-05-05 08:48 | 39.25708 | -113.48038 | 36770 ft | 519 kts | 76° |
| 2026-05-05 08:49 | 39.26732 | -113.43549 | 36862 ft | 517 kts | 76° |
| 2026-05-05 08:49 | 39.28817 | -113.34661 | 36647 ft | 524 kts | 75° |
| 2026-05-05 08:49 | 39.29968 | -113.30158 | 36491 ft | 528 kts | 73° |
| 2026-05-05 08:50 | 39.31172 | -113.25717 | 36459 ft | 529 kts | 72° |
| 2026-05-05 08:50 | 39.32434 | -113.21266 | 36578 ft | 526 kts | 71° |
| 2026-05-05 08:50 | 39.33729 | -113.16851 | 36766 ft | 523 kts | 71° |
| 2026-05-05 08:50 | 39.35050 | -113.12465 | 36875 ft | 521 kts | 70° |
| 2026-05-05 08:51 | 39.36380 | -113.08151 | 36834 ft | 522 kts | 70° |
| 2026-05-05 08:51 | 39.37753 | -113.03780 | 36640 ft | 528 kts | 70° |
| 2026-05-05 08:51 | 39.39170 | -112.99344 | 36439 ft | 533 kts | 69° |
| 2026-05-05 08:52 | 39.42053 | -112.90530 | 36525 ft | 531 kts | 69° |
| 2026-05-05 08:52 | 39.43499 | -112.86200 | 36757 ft | 527 kts | 68° |
| 2026-05-05 08:52 | 39.44971 | -112.81852 | 36920 ft | 524 kts | 68° |
| 2026-05-05 08:53 | 39.47942 | -112.73225 | 36763 ft | 530 kts | 68° |
| 2026-05-05 08:53 | 39.49473 | -112.68847 | 36563 ft | 535 kts | 67° |
| 2026-05-05 08:53 | 39.51029 | -112.64445 | 36487 ft | 537 kts | 66° |
| 2026-05-05 08:53 | 39.52571 | -112.60123 | 36601 ft | 534 kts | 66° |
| 2026-05-05 08:54 | 39.54140 | -112.55763 | 36847 ft | 529 kts | 66° |
| 2026-05-05 08:54 | 39.55711 | -112.51435 | 37022 ft | 526 kts | 66° |
| 2026-05-05 08:54 | 39.57261 | -112.47201 | 36946 ft | 526 kts | 66° |
| 2026-05-05 08:54 | 39.58854 | -112.42886 | 36778 ft | 531 kts | 65° |
| 2026-05-05 08:55 | 39.60452 | -112.38588 | 36541 ft | 537 kts | 65° |
| 2026-05-05 08:55 | 39.62096 | -112.34194 | 36391 ft | 540 kts | 65° |
| 2026-05-05 08:55 | 39.63730 | -112.29853 | 36434 ft | 539 kts | 65° |
| 2026-05-05 08:55 | 39.65383 | -112.25484 | 36665 ft | 535 kts | 65° |
| 2026-05-05 08:56 | 39.67011 | -112.21206 | 36871 ft | 530 kts | 65° |
| 2026-05-05 08:56 | 39.68647 | -112.16923 | 36974 ft | 529 kts | 65° |
| 2026-05-05 08:56 | 39.70308 | -112.12596 | 36849 ft | 533 kts | 64° |
| 2026-05-05 08:56 | 39.71957 | -112.08320 | 36630 ft | 538 kts | 64° |
| 2026-05-05 08:57 | 39.73660 | -112.03934 | 36429 ft | 543 kts | 64° |
| 2026-05-05 08:57 | 39.76769 | -111.96002 | 36523 ft | 541 kts | 64° |
| 2026-05-05 08:57 | 39.78485 | -111.91660 | 36780 ft | 536 kts | 64° |